< < Back
Terminal Aerodrome Forecast


Current Version              Previous Versions:   1  2  3  4  5  6  7  8  9  

Terminal Aerodrome Forecast

968
FTUS44 KMOB 300214 AAA
TAFPNS
TAF AMD
KPNS 300214Z 3002/3024 VRB05KT P6SM SCT250
     FM300300 VRB02KT P6SM SKC
     FM301500 06008KT P6SM FEW250=

Latest METAR

443
SAUS70 KWBC 300900 RRL
MTRPNS
METAR KPNS 300853Z AUTO 06005KT 10SM CLR 26/22 A2994 RMK AO2 SLP140
T02610222 56003


USA.gov is the U.S. government's official web portal to all federal, state and local government web resources and services.